SBTT/TBT METAR and TAF weather

Enter ICAO airport designator
Station Type Date Time Source
SBTT METAR 2020/10/20 17:00 UTC NOAA

SBTT 201700Z 22003KT 9999 FEW023 SCT100 29/23 Q1011


Station Type Date Time Source
SBTT Decoded METAR 2020/10/20 17:00 UTC NOAA

Tabatinga, Brazil (SBTT) 03-40S 069-40W
Oct 20, 2020 - 01:00 PM EDT / 2020.10.20 1700 UTC
Wind: from the SW (220 degrees) at 3 MPH (3 KT):0
Visibility: greater than 7 mile(s):0
Sky conditions: partly cloudy
Temperature: 84 F (29 C)
Dew Point: 73 F (23 C)
Relative Humidity: 70%
Pressure (altimeter): 29.85 in. Hg (1011 hPa)
ob: SBTT 201700Z 22003KT 9999 FEW023 SCT100 29/23 Q1011
cycle: 17

Station Type Date Time Source
SBTT TAF 2020/10/20 18:57 UTC NOAA

TAF SBTT 201433Z 2018/2118 12005KT 8000 SCT025 FEW030TCU TX29/2019Z TN22/2111Z PROB30
TEMPO 2018/2022 4000 TSRA BKN020 FEW030CB
BECMG 2100/2103 SCT006 PROB30 2110/2112 BKN006
RMK PHI

Example: see airport list